sensor_id;sensor_type;location;lat;lon;timestamp;P1;P2;P0
76238;PMS7003;65043;48.392;-4.472;2023-07-31T00:25:21;8.75;4.25;3.25
76238;PMS7003;65043;48.392;-4.472;2023-07-31T00:55:25;5.75;5.00;3.00
76238;PMS7003;65043;48.392;-4.472;2023-07-31T01:01:45;8.00;6.50;3.50
76238;PMS7003;65043;48.392;-4.472;2023-07-31T01:11:06;12.25;5.50;3.25
76238;PMS7003;65043;48.392;-4.472;2023-07-31T01:17:09;7.25;5.25;4.00
76238;PMS7003;65043;48.392;-4.472;2023-07-31T01:36:46;7.75;6.00;3.00
76238;PMS7003;65043;48.392;-4.472;2023-07-31T01:39:39;4.75;4.00;2.50
76238;PMS7003;65043;48.392;-4.472;2023-07-31T01:42:45;6.50;4.50;3.00
76238;PMS7003;65043;48.392;-4.472;2023-07-31T01:45:34;10.75;6.75;4.00
76238;PMS7003;65043;48.392;-4.472;2023-07-31T01:49:10;6.00;4.75;3.00
76238;PMS7003;65043;48.392;-4.472;2023-07-31T01:55:29;4.75;4.75;2.75
76238;PMS7003;65043;48.392;-4.472;2023-07-31T01:58:02;7.00;6.25;3.00
76238;PMS7003;65043;48.392;-4.472;2023-07-31T02:00:50;6.00;4.25;3.00
76238;PMS7003;65043;48.392;-4.472;2023-07-31T02:03:36;7.25;6.25;3.00
76238;PMS7003;65043;48.392;-4.472;2023-07-31T02:06:24;8.00;5.25;3.00
76238;PMS7003;65043;48.392;-4.472;2023-07-31T02:09:05;6.75;4.25;3.00
76238;PMS7003;65043;48.392;-4.472;2023-07-31T02:15:01;8.00;4.50;3.00
76238;PMS7003;65043;48.392;-4.472;2023-07-31T02:17:57;7.00;6.25;3.00
76238;PMS7003;65043;48.392;-4.472;2023-07-31T02:20:38;4.00;4.00;3.00
76238;PMS7003;65043;48.392;-4.472;2023-07-31T02:23:25;5.75;5.75;3.75
76238;PMS7003;65043;48.392;-4.472;2023-07-31T02:26:19;6.00;4.00;3.00
76238;PMS7003;65043;48.392;-4.472;2023-07-31T02:29:10;6.25;5.75;2.75
76238;PMS7003;65043;48.392;-4.472;2023-07-31T02:32:07;6.00;4.50;2.50
76238;PMS7003;65043;48.392;-4.472;2023-07-31T02:34:45;6.50;3.75;3.00
76238;PMS7003;65043;48.392;-4.472;2023-07-31T02:37:18;5.75;5.00;3.00
76238;PMS7003;65043;48.392;-4.472;2023-07-31T02:39:57;9.50;5.25;3.00
76238;PMS7003;65043;48.392;-4.472;2023-07-31T02:42:44;11.50;8.75;3.00
76238;PMS7003;65043;48.392;-4.472;2023-07-31T02:49:22;5.25;3.00;1.75
76238;PMS7003;65043;48.392;-4.472;2023-07-31T02:52:13;7.00;6.00;3.00
76238;PMS7003;65043;48.392;-4.472;2023-07-31T02:55:00;4.00;3.25;2.25
76238;PMS7003;65043;48.392;-4.472;2023-07-31T02:57:49;6.75;4.25;2.50
76238;PMS7003;65043;48.392;-4.472;2023-07-31T03:06:51;5.75;5.00;3.00
76238;PMS7003;65043;48.392;-4.472;2023-07-31T03:10:03;9.00;7.25;4.00
76238;PMS7003;65043;48.392;-4.472;2023-07-31T03:12:56;8.50;6.75;4.00
76238;PMS7003;65043;48.392;-4.472;2023-07-31T03:15:53;10.50;6.75;4.00
76238;PMS7003;65043;48.392;-4.472;2023-07-31T03:18:44;7.00;7.00;5.00
76238;PMS7003;65043;48.392;-4.472;2023-07-31T03:21:27;11.25;8.00;4.50
76238;PMS7003;65043;48.392;-4.472;2023-07-31T03:23:53;7.75;5.50;3.00
76238;PMS7003;65043;48.392;-4.472;2023-07-31T03:26:38;5.00;4.00;2.75
76238;PMS7003;65043;48.392;-4.472;2023-07-31T03:29:26;6.00;4.50;2.75
76238;PMS7003;65043;48.392;-4.472;2023-07-31T03:31:59;5.75;5.25;3.00
76238;PMS7003;65043;48.392;-4.472;2023-07-31T03:34:27;7.50;4.25;2.75
76238;PMS7003;65043;48.392;-4.472;2023-07-31T03:37:12;4.50;4.25;1.75
76238;PMS7003;65043;48.392;-4.472;2023-07-31T03:43:16;12.25;6.00;3.00
76238;PMS7003;65043;48.392;-4.472;2023-07-31T03:45:57;8.25;5.25;2.50
76238;PMS7003;65043;48.392;-4.472;2023-07-31T03:48:46;7.00;5.00;2.50
76238;PMS7003;65043;48.392;-4.472;2023-07-31T03:51:17;8.50;6.25;3.00
76238;PMS7003;65043;48.392;-4.472;2023-07-31T03:53:55;8.75;4.50;3.00
76238;PMS7003;65043;48.392;-4.472;2023-07-31T03:56:36;10.25;4.75;2.50
76238;PMS7003;65043;48.392;-4.472;2023-07-31T03:59:06;9.50;4.75;3.00
76238;PMS7003;65043;48.392;-4.472;2023-07-31T04:01:39;5.50;5.50;2.75
76238;PMS7003;65043;48.392;-4.472;2023-07-31T04:04:42;8.00;5.50;3.25
76238;PMS7003;65043;48.392;-4.472;2023-07-31T04:07:33;9.00;7.25;3.25
76238;PMS7003;65043;48.392;-4.472;2023-07-31T04:10:08;7.50;7.00;3.50
76238;PMS7003;65043;48.392;-4.472;2023-07-31T04:12:44;9.00;6.25;3.00
76238;PMS7003;65043;48.392;-4.472;2023-07-31T04:15:47;7.25;6.75;3.00
76238;PMS7003;65043;48.392;-4.472;2023-07-31T04:18:21;8.00;6.50;3.50
76238;PMS7003;65043;48.392;-4.472;2023-07-31T04:21:04;6.50;4.50;3.00
76238;PMS7003;65043;48.392;-4.472;2023-07-31T04:23:42;11.50;7.00;4.00
76238;PMS7003;65043;48.392;-4.472;2023-07-31T04:26:23;12.50;6.25;3.25
76238;PMS7003;65043;48.392;-4.472;2023-07-31T04:29:05;11.25;7.00;4.50
76238;PMS7003;65043;48.392;-4.472;2023-07-31T04:32:11;8.50;6.75;3.50
76238;PMS7003;65043;48.392;-4.472;2023-07-31T04:34:44;5.50;4.50;2.50
76238;PMS7003;65043;48.392;-4.472;2023-07-31T04:37:22;4.50;4.00;2.50
76238;PMS7003;65043;48.392;-4.472;2023-07-31T04:40:06;7.50;4.75;3.00
76238;PMS7003;65043;48.392;-4.472;2023-07-31T04:43:05;13.00;7.75;4.00
76238;PMS7003;65043;48.392;-4.472;2023-07-31T04:49:12;8.75;5.25;3.50
76238;PMS7003;65043;48.392;-4.472;2023-07-31T04:52:05;6.50;5.00;3.00
76238;PMS7003;65043;48.392;-4.472;2023-07-31T04:57:59;7.75;5.50;2.25
76238;PMS7003;65043;48.392;-4.472;2023-07-31T05:01:04;10.25;7.50;3.25
76238;PMS7003;65043;48.392;-4.472;2023-07-31T05:04:15;11.75;7.50;5.00
76238;PMS7003;65043;48.392;-4.472;2023-07-31T05:06:52;13.00;12.00;5.00
76238;PMS7003;65043;48.392;-4.472;2023-07-31T05:16:03;10.00;7.25;3.75
76238;PMS7003;65043;48.392;-4.472;2023-07-31T05:18:59;10.75;8.50;3.75
76238;PMS7003;65043;48.392;-4.472;2023-07-31T05:34:14;12.00;7.25;3.75
76238;PMS7003;65043;48.392;-4.472;2023-07-31T05:36:54;9.25;8.25;4.00
76238;PMS7003;65043;48.392;-4.472;2023-07-31T05:40:00;8.50;6.50;3.00
76238;PMS7003;65043;48.392;-4.472;2023-07-31T05:45:31;13.00;9.25;4.50
76238;PMS7003;65043;48.392;-4.472;2023-07-31T05:48:14;9.50;9.00;4.00
76238;PMS7003;65043;48.392;-4.472;2023-07-31T05:50:53;9.25;6.25;4.00
76238;PMS7003;65043;48.392;-4.472;2023-07-31T05:53:38;9.25;8.25;4.00
76238;PMS7003;65043;48.392;-4.472;2023-07-31T05:56:15;6.75;5.50;4.25
76238;PMS7003;65043;48.392;-4.472;2023-07-31T05:58:58;7.50;7.50;4.00
76238;PMS7003;65043;48.392;-4.472;2023-07-31T06:01:46;13.25;8.50;5.75
76238;PMS7003;65043;48.392;-4.472;2023-07-31T06:04:42;9.25;6.75;4.00
76238;PMS7003;65043;48.392;-4.472;2023-07-31T06:07:18;13.75;8.25;4.50
76238;PMS7003;65043;48.392;-4.472;2023-07-31T06:09:53;15.25;8.25;5.00
76238;PMS7003;65043;48.392;-4.472;2023-07-31T06:15:45;10.75;5.50;3.50
76238;PMS7003;65043;48.392;-4.472;2023-07-31T06:18:24;10.50;5.50;3.00
76238;PMS7003;65043;48.392;-4.472;2023-07-31T06:21:41;5.75;4.25;3.00
76238;PMS7003;65043;48.392;-4.472;2023-07-31T06:25:00;7.75;7.75;4.25
76238;PMS7003;65043;48.392;-4.472;2023-07-31T06:27:48;12.50;6.00;3.75
76238;PMS7003;65043;48.392;-4.472;2023-07-31T06:33:47;8.75;6.75;3.25
76238;PMS7003;65043;48.392;-4.472;2023-07-31T06:37:20;6.25;4.75;3.00
76238;PMS7003;65043;48.392;-4.472;2023-07-31T06:40:10;10.25;9.50;5.25
76238;PMS7003;65043;48.392;-4.472;2023-07-31T06:42:41;8.25;6.75;3.50
76238;PMS7003;65043;48.392;-4.472;2023-07-31T06:45:43;10.25;7.50;4.00
76238;PMS7003;65043;48.392;-4.472;2023-07-31T06:51:43;8.25;6.50;3.25
76238;PMS7003;65043;48.392;-4.472;2023-07-31T06:54:24;7.50;7.00;3.50
76238;PMS7003;65043;48.392;-4.472;2023-07-31T07:03:21;6.25;3.50;2.00
76238;PMS7003;65043;48.392;-4.472;2023-07-31T07:06:20;3.00;3.00;2.00
76238;PMS7003;65043;48.392;-4.472;2023-07-31T07:09:12;3.75;2.50;2.00
76238;PMS7003;65043;48.392;-4.472;2023-07-31T07:11:40;4.00;4.00;2.50
76238;PMS7003;65043;48.392;-4.472;2023-07-31T07:29:43;5.75;4.75;2.50
76238;PMS7003;65043;48.392;-4.472;2023-07-31T07:32:11;7.25;5.00;2.00
76238;PMS7003;65043;48.392;-4.472;2023-07-31T07:34:56;6.00;4.00;3.00
76238;PMS7003;65043;48.392;-4.472;2023-07-31T07:37:39;4.75;0.75;0.75
76238;PMS7003;65043;48.392;-4.472;2023-07-31T07:40:21;3.25;2.50;2.00
76238;PMS7003;65043;48.392;-4.472;2023-07-31T07:49:35;5.00;3.00;2.00
76238;PMS7003;65043;48.392;-4.472;2023-07-31T07:52:06;5.50;2.25;1.25
76238;PMS7003;65043;48.392;-4.472;2023-07-31T07:54:34;6.25;5.50;2.25
76238;PMS7003;65043;48.392;-4.472;2023-07-31T07:57:26;8.00;3.75;2.75
76238;PMS7003;65043;48.392;-4.472;2023-07-31T08:03:57;8.25;6.00;3.00
76238;PMS7003;65043;48.392;-4.472;2023-07-31T08:06:59;6.00;6.00;3.00
76238;PMS7003;65043;48.392;-4.472;2023-07-31T08:16:27;5.75;4.50;1.00
76238;PMS7003;65043;48.392;-4.472;2023-07-31T08:29:37;9.00;6.00;3.00
76238;PMS7003;65043;48.392;-4.472;2023-07-31T08:32:31;4.50;4.50;2.00
76238;PMS7003;65043;48.392;-4.472;2023-07-31T08:41:04;51.50;40.50;25.75
76238;PMS7003;65043;48.392;-4.472;2023-07-31T08:43:30;65.25;48.00;28.00
76238;PMS7003;65043;48.392;-4.472;2023-07-31T08:45:59;19.75;18.50;13.50
76238;PMS7003;65043;48.392;-4.472;2023-07-31T08:48:31;35.50;28.25;19.25
76238;PMS7003;65043;48.392;-4.472;2023-07-31T08:51:04;40.00;30.00;17.25
76238;PMS7003;65043;48.392;-4.472;2023-07-31T09:07:49;3.75;3.75;3.00
76238;PMS7003;65043;48.392;-4.472;2023-07-31T09:10:50;5.50;5.50;3.00
76238;PMS7003;65043;48.392;-4.472;2023-07-31T09:16:34;6.25;6.25;3.50
76238;PMS7003;65043;48.392;-4.472;2023-07-31T09:22:43;7.00;5.00;3.25
76238;PMS7003;65043;48.392;-4.472;2023-07-31T09:25:15;4.25;4.25;2.75
76238;PMS7003;65043;48.392;-4.472;2023-07-31T09:36:50;6.50;3.50;2.50
76238;PMS7003;65043;48.392;-4.472;2023-07-31T09:42:51;8.00;6.50;3.00
76238;PMS7003;65043;48.392;-4.472;2023-07-31T09:45:48;10.00;4.50;2.00
76238;PMS7003;65043;48.392;-4.472;2023-07-31T09:48:38;9.50;5.75;3.50
76238;PMS7003;65043;48.392;-4.472;2023-07-31T09:51:06;8.75;5.00;3.00
76238;PMS7003;65043;48.392;-4.472;2023-07-31T09:53:56;6.50;3.25;2.00
76238;PMS7003;65043;48.392;-4.472;2023-07-31T09:56:49;4.75;3.75;2.25
76238;PMS7003;65043;48.392;-4.472;2023-07-31T09:59:30;3.50;3.00;2.00
76238;PMS7003;65043;48.392;-4.472;2023-07-31T10:02:37;4.00;4.00;2.75
76238;PMS7003;65043;48.392;-4.472;2023-07-31T10:08:06;5.00;4.00;2.25
76238;PMS7003;65043;48.392;-4.472;2023-07-31T10:10:34;5.75;3.00;2.00
76238;PMS7003;65043;48.392;-4.472;2023-07-31T10:13:03;4.75;4.25;3.00
76238;PMS7003;65043;48.392;-4.472;2023-07-31T10:15:30;7.25;7.00;3.00
76238;PMS7003;65043;48.392;-4.472;2023-07-31T10:17:59;8.75;6.75;3.50
76238;PMS7003;65043;48.392;-4.472;2023-07-31T10:20:33;9.00;6.00;4.00
76238;PMS7003;65043;48.392;-4.472;2023-07-31T10:23:10;9.75;5.50;3.75
76238;PMS7003;65043;48.392;-4.472;2023-07-31T10:25:48;5.00;3.75;1.75
76238;PMS7003;65043;48.392;-4.472;2023-07-31T10:28:27;7.50;4.25;3.25
76238;PMS7003;65043;48.392;-4.472;2023-07-31T10:30:57;5.00;4.00;3.00
76238;PMS7003;65043;48.392;-4.472;2023-07-31T10:33:23;8.50;6.00;3.75
76238;PMS7003;65043;48.392;-4.472;2023-07-31T10:35:51;5.50;4.75;3.00
76238;PMS7003;65043;48.392;-4.472;2023-07-31T10:38:45;8.25;5.25;3.00
76238;PMS7003;65043;48.392;-4.472;2023-07-31T10:41:13;43.75;36.50;21.00
76238;PMS7003;65043;48.392;-4.472;2023-07-31T10:43:40;45.00;36.25;23.75
76238;PMS7003;65043;48.392;-4.472;2023-07-31T10:46:12;64.00;49.50;31.00
76238;PMS7003;65043;48.392;-4.472;2023-07-31T10:48:39;40.00;35.00;20.75
76238;PMS7003;65043;48.392;-4.472;2023-07-31T10:51:09;82.50;58.75;34.50
76238;PMS7003;65043;48.392;-4.472;2023-07-31T10:53:37;56.75;42.50;26.00
76238;PMS7003;65043;48.392;-4.472;2023-07-31T10:56:22;11.50;9.25;4.75
76238;PMS7003;65043;48.392;-4.472;2023-07-31T10:59:01;9.00;6.50;4.50
76238;PMS7003;65043;48.392;-4.472;2023-07-31T11:04:26;7.50;5.25;3.75
76238;PMS7003;65043;48.392;-4.472;2023-07-31T11:06:58;4.75;4.75;3.00
76238;PMS7003;65043;48.392;-4.472;2023-07-31T11:09:31;5.25;4.00;3.00
76238;PMS7003;65043;48.392;-4.472;2023-07-31T11:18:41;6.00;4.50;3.50
76238;PMS7003;65043;48.392;-4.472;2023-07-31T11:38:46;3.25;3.25;1.75
76238;PMS7003;65043;48.392;-4.472;2023-07-31T11:41:54;2.50;2.00;1.50
76238;PMS7003;65043;48.392;-4.472;2023-07-31T11:58:29;1.25;1.25;1.00
76238;PMS7003;65043;48.392;-4.472;2023-07-31T12:02:23;1.50;1.00;1.00
76238;PMS7003;65043;48.392;-4.472;2023-07-31T12:28:49;4.00;2.00;0.25
76238;PMS7003;65043;48.392;-4.472;2023-07-31T12:38:08;4.50;3.00;1.00
76238;PMS7003;65043;48.392;-4.472;2023-07-31T12:44:39;3.00;3.00;1.75
76238;PMS7003;65043;48.392;-4.472;2023-07-31T12:51:12;9.25;4.00;2.00
76238;PMS7003;65043;48.392;-4.472;2023-07-31T12:54:05;4.25;4.00;2.25
76238;PMS7003;65043;48.392;-4.472;2023-07-31T12:56:54;5.50;5.00;3.00
76238;PMS7003;65043;48.392;-4.472;2023-07-31T13:10:13;4.00;3.75;3.25
76238;PMS7003;65043;48.392;-4.472;2023-07-31T13:13:03;9.00;6.25;3.00
76238;PMS7003;65043;48.392;-4.472;2023-07-31T13:16:18;7.50;4.00;3.25
76238;PMS7003;65043;48.392;-4.472;2023-07-31T13:19:23;8.75;6.50;2.75
76238;PMS7003;65043;48.392;-4.472;2023-07-31T13:25:36;8.25;7.25;3.50
76238;PMS7003;65043;48.392;-4.472;2023-07-31T13:35:07;9.75;8.50;4.50
76238;PMS7003;65043;48.392;-4.472;2023-07-31T13:38:02;10.25;7.50;6.00
76238;PMS7003;65043;48.392;-4.472;2023-07-31T13:40:41;6.75;6.50;3.00
76238;PMS7003;65043;48.392;-4.472;2023-07-31T13:43:31;10.50;8.50;6.00
76238;PMS7003;65043;48.392;-4.472;2023-07-31T13:46:09;13.25;12.25;5.75
76238;PMS7003;65043;48.392;-4.472;2023-07-31T13:48:57;13.25;11.25;5.00
76238;PMS7003;65043;48.392;-4.472;2023-07-31T13:51:33;20.25;11.00;6.25
76238;PMS7003;65043;48.392;-4.472;2023-07-31T13:54:04;17.75;11.50;7.00
76238;PMS7003;65043;48.392;-4.472;2023-07-31T13:56:50;12.00;11.00;6.50
76238;PMS7003;65043;48.392;-4.472;2023-07-31T13:59:39;13.75;9.75;5.75
76238;PMS7003;65043;48.392;-4.472;2023-07-31T14:02:40;8.25;8.25;5.00
76238;PMS7003;65043;48.392;-4.472;2023-07-31T14:05:51;47.25;35.00;22.50
76238;PMS7003;65043;48.392;-4.472;2023-07-31T14:08:24;61.50;43.75;26.50
76238;PMS7003;65043;48.392;-4.472;2023-07-31T14:10:52;23.00;21.50;14.00
76238;PMS7003;65043;48.392;-4.472;2023-07-31T14:13:17;45.50;35.75;21.25
76238;PMS7003;65043;48.392;-4.472;2023-07-31T14:15:43;65.50;51.00;30.25
76238;PMS7003;65043;48.392;-4.472;2023-07-31T14:18:09;45.00;31.00;18.25
76238;PMS7003;65043;48.392;-4.472;2023-07-31T14:21:04;18.75;12.00;7.50
76238;PMS7003;65043;48.392;-4.472;2023-07-31T14:23:35;13.50;10.00;6.00
76238;PMS7003;65043;48.392;-4.472;2023-07-31T14:26:03;7.00;6.00;3.00
76238;PMS7003;65043;48.392;-4.472;2023-07-31T14:35:15;8.25;7.00;4.75
76238;PMS7003;65043;48.392;-4.472;2023-07-31T14:37:45;10.25;8.00;3.75
76238;PMS7003;65043;48.392;-4.472;2023-07-31T14:40:16;6.75;6.00;3.00
76238;PMS7003;65043;48.392;-4.472;2023-07-31T14:43:01;8.75;5.25;3.00
76238;PMS7003;65043;48.392;-4.472;2023-07-31T14:45:49;9.00;4.75;3.00
76238;PMS7003;65043;48.392;-4.472;2023-07-31T14:55:34;8.25;6.00;3.00
76238;PMS7003;65043;48.392;-4.472;2023-07-31T14:58:40;7.25;7.00;4.50
76238;PMS7003;65043;48.392;-4.472;2023-07-31T15:01:45;8.00;7.00;4.00
76238;PMS7003;65043;48.392;-4.472;2023-07-31T15:04:51;7.25;6.50;4.00
76238;PMS7003;65043;48.392;-4.472;2023-07-31T15:07:37;13.75;8.25;5.50
76238;PMS7003;65043;48.392;-4.472;2023-07-31T15:10:13;9.25;8.50;5.00
76238;PMS7003;65043;48.392;-4.472;2023-07-31T15:12:50;6.25;5.00;3.00
76238;PMS7003;65043;48.392;-4.472;2023-07-31T15:15:55;10.00;7.00;3.50
76238;PMS7003;65043;48.392;-4.472;2023-07-31T15:33:10;6.00;5.25;3.00
76238;PMS7003;65043;48.392;-4.472;2023-07-31T15:36:19;11.00;8.50;4.00
76238;PMS7003;65043;48.392;-4.472;2023-07-31T15:42:29;8.00;8.00;4.50
76238;PMS7003;65043;48.392;-4.472;2023-07-31T15:45:43;7.25;7.25;4.00
76238;PMS7003;65043;48.392;-4.472;2023-07-31T15:48:16;7.25;5.50;4.00
76238;PMS7003;65043;48.392;-4.472;2023-07-31T15:51:10;10.75;7.25;3.75
76238;PMS7003;65043;48.392;-4.472;2023-07-31T15:54:29;7.50;6.25;4.50
76238;PMS7003;65043;48.392;-4.472;2023-07-31T16:00:31;8.00;6.25;3.75
76238;PMS7003;65043;48.392;-4.472;2023-07-31T16:03:15;7.50;6.00;2.25
76238;PMS7003;65043;48.392;-4.472;2023-07-31T16:06:24;8.75;5.25;3.00
76238;PMS7003;65043;48.392;-4.472;2023-07-31T16:12:23;6.25;3.25;2.00
76238;PMS7003;65043;48.392;-4.472;2023-07-31T16:39:12;2.00;1.25;1.00
76238;PMS7003;65043;48.392;-4.472;2023-07-31T16:49:31;1.00;1.00;1.00
76238;PMS7003;65043;48.392;-4.472;2023-07-31T17:15:14;50.75;40.50;23.50
76238;PMS7003;65043;48.392;-4.472;2023-07-31T17:36:36;4.25;3.25;1.75
76238;PMS7003;65043;48.392;-4.472;2023-07-31T17:46:04;5.50;4.00;3.00
76238;PMS7003;65043;48.392;-4.472;2023-07-31T17:52:11;4.75;2.00;1.50
76238;PMS7003;65043;48.392;-4.472;2023-07-31T17:55:03;2.50;2.50;2.00
76238;PMS7003;65043;48.392;-4.472;2023-07-31T17:57:49;2.25;2.25;1.75
76238;PMS7003;65043;48.392;-4.472;2023-07-31T18:00:19;5.00;2.75;2.00
76238;PMS7003;65043;48.392;-4.472;2023-07-31T18:02:47;6.25;3.25;2.25
76238;PMS7003;65043;48.392;-4.472;2023-07-31T18:05:35;5.50;2.75;1.00
76238;PMS7003;65043;48.392;-4.472;2023-07-31T18:08:07;3.75;1.75;1.00
76238;PMS7003;65043;48.392;-4.472;2023-07-31T18:10:32;2.50;2.00;1.00
76238;PMS7003;65043;48.392;-4.472;2023-07-31T18:13:08;2.25;2.00;1.00
76238;PMS7003;65043;48.392;-4.472;2023-07-31T18:15:36;1.00;1.00;1.00
76238;PMS7003;65043;48.392;-4.472;2023-07-31T18:18:02;1.00;1.00;0.50
76238;PMS7003;65043;48.392;-4.472;2023-07-31T18:20:37;2.00;2.00;1.00
76238;PMS7003;65043;48.392;-4.472;2023-07-31T18:23:02;0.75;0.75;0.75
76238;PMS7003;65043;48.392;-4.472;2023-07-31T18:25:28;2.25;1.50;1.00
76238;PMS7003;65043;48.392;-4.472;2023-07-31T18:27:53;1.50;0.00;0.00
76238;PMS7003;65043;48.392;-4.472;2023-07-31T18:34:01;80.75;62.00;37.25
76238;PMS7003;65043;48.392;-4.472;2023-07-31T18:39:36;70.75;54.50;34.00
76238;PMS7003;65043;48.392;-4.472;2023-07-31T18:42:30;53.50;39.75;26.25
76238;PMS7003;65043;48.392;-4.472;2023-07-31T18:45:24;41.75;37.50;23.50
76238;PMS7003;65043;48.392;-4.472;2023-07-31T18:48:01;9.75;9.00;5.25
76238;PMS7003;65043;48.392;-4.472;2023-07-31T18:51:04;0.25;0.25;0.25
76238;PMS7003;65043;48.392;-4.472;2023-07-31T19:07:53;0.50;0.50;0.00
76238;PMS7003;65043;48.392;-4.472;2023-07-31T19:31:27;2.25;0.00;0.00
76238;PMS7003;65043;48.392;-4.472;2023-07-31T19:34:36;0.00;0.00;0.00
76238;PMS7003;65043;48.392;-4.472;2023-07-31T19:43:49;1.00;0.00;0.00
76238;PMS7003;65043;48.392;-4.472;2023-07-31T19:46:53;1.75;0.00;0.00
76238;PMS7003;65043;48.392;-4.472;2023-07-31T19:53:47;0.00;0.00;0.00
76238;PMS7003;65043;48.392;-4.472;2023-07-31T20:03:23;0.00;0.00;0.00
76238;PMS7003;65043;48.392;-4.472;2023-07-31T20:06:22;0.00;0.00;0.00
76238;PMS7003;65043;48.392;-4.472;2023-07-31T20:09:16;0.00;0.00;0.00
76238;PMS7003;65043;48.392;-4.472;2023-07-31T20:18:53;0.00;0.00;0.00
76238;PMS7003;65043;48.392;-4.472;2023-07-31T20:21:52;0.25;0.25;0.00
76238;PMS7003;65043;48.392;-4.472;2023-07-31T20:27:41;58.75;48.00;31.50
76238;PMS7003;65043;48.392;-4.472;2023-07-31T20:30:09;61.75;47.50;29.00
76238;PMS7003;65043;48.392;-4.472;2023-07-31T20:32:35;38.50;30.50;19.75
76238;PMS7003;65043;48.392;-4.472;2023-07-31T20:35:13;57.50;43.00;25.75
76238;PMS7003;65043;48.392;-4.472;2023-07-31T20:37:45;23.50;18.25;11.75
76238;PMS7003;65043;48.392;-4.472;2023-07-31T20:43:31;4.25;4.25;4.00
76238;PMS7003;65043;48.392;-4.472;2023-07-31T20:49:39;2.00;1.00;0.25
76238;PMS7003;65043;48.392;-4.472;2023-07-31T20:52:35;0.75;0.75;0.25
76238;PMS7003;65043;48.392;-4.472;2023-07-31T20:55:19;1.50;1.50;0.00
76238;PMS7003;65043;48.392;-4.472;2023-07-31T21:03:55;2.00;0.00;0.00
76238;PMS7003;65043;48.392;-4.472;2023-07-31T21:06:35;0.00;0.00;0.00
76238;PMS7003;65043;48.392;-4.472;2023-07-31T21:09:14;1.00;1.00;0.00
76238;PMS7003;65043;48.392;-4.472;2023-07-31T21:12:09;0.00;0.00;0.00
76238;PMS7003;65043;48.392;-4.472;2023-07-31T21:15:16;1.25;0.00;0.00
76238;PMS7003;65043;48.392;-4.472;2023-07-31T21:18:03;2.00;1.00;0.50
76238;PMS7003;65043;48.392;-4.472;2023-07-31T21:20:45;0.75;0.50;0.00
76238;PMS7003;65043;48.392;-4.472;2023-07-31T21:23:24;1.25;1.25;1.00
76238;PMS7003;65043;48.392;-4.472;2023-07-31T21:29:25;1.75;0.00;0.00
76238;PMS7003;65043;48.392;-4.472;2023-07-31T21:32:29;1.00;1.00;0.25
76238;PMS7003;65043;48.392;-4.472;2023-07-31T21:38:40;3.00;1.00;1.00
76238;PMS7003;65043;48.392;-4.472;2023-07-31T21:42:02;1.00;1.00;0.00
76238;PMS7003;65043;48.392;-4.472;2023-07-31T21:44:55;2.75;1.25;1.00
76238;PMS7003;65043;48.392;-4.472;2023-07-31T21:47:33;0.75;0.75;0.00
76238;PMS7003;65043;48.392;-4.472;2023-07-31T21:50:16;2.00;1.75;0.75
76238;PMS7003;65043;48.392;-4.472;2023-07-31T21:53:07;1.25;1.25;0.00
76238;PMS7003;65043;48.392;-4.472;2023-07-31T21:55:51;1.25;1.00;0.00
76238;PMS7003;65043;48.392;-4.472;2023-07-31T21:58:22;2.75;2.00;1.00
76238;PMS7003;65043;48.392;-4.472;2023-07-31T22:01:10;2.00;2.00;1.00
76238;PMS7003;65043;48.392;-4.472;2023-07-31T22:07:27;2.75;1.00;1.00
76238;PMS7003;65043;48.392;-4.472;2023-07-31T22:25:42;1.25;1.00;0.50
76238;PMS7003;65043;48.392;-4.472;2023-07-31T22:38:48;5.75;1.25;1.00
76238;PMS7003;65043;48.392;-4.472;2023-07-31T22:45:23;3.25;3.25;1.00
76238;PMS7003;65043;48.392;-4.472;2023-07-31T23:02:25;3.00;2.00;1.00
76238;PMS7003;65043;48.392;-4.472;2023-07-31T23:11:47;2.25;1.75;1.00
76238;PMS7003;65043;48.392;-4.472;2023-07-31T23:14:40;4.75;1.75;1.25
76238;PMS7003;65043;48.392;-4.472;2023-07-31T23:17:31;4.00;1.75;1.25
76238;PMS7003;65043;48.392;-4.472;2023-07-31T23:20:54;6.00;3.00;1.00
76238;PMS7003;65043;48.392;-4.472;2023-07-31T23:23:57;2.50;2.00;1.00
76238;PMS7003;65043;48.392;-4.472;2023-07-31T23:27:16;6.50;2.50;1.50
76238;PMS7003;65043;48.392;-4.472;2023-07-31T23:30:42;4.25;2.00;1.00
76238;PMS7003;65043;48.392;-4.472;2023-07-31T23:33:53;2.25;2.00;0.75
76238;PMS7003;65043;48.392;-4.472;2023-07-31T23:37:17;2.75;2.00;1.25
76238;PMS7003;65043;48.392;-4.472;2023-07-31T23:40:30;1.75;1.75;1.75
76238;PMS7003;65043;48.392;-4.472;2023-07-31T23:50:12;3.50;3.00;2.00
76238;PMS7003;65043;48.392;-4.472;2023-07-31T23:53:19;2.25;2.25;1.00
76238;PMS7003;65043;48.392;-4.472;2023-07-31T23:56:42;3.75;2.00;1.00
76238;PMS7003;65043;48.392;-4.472;2023-07-31T23:59:16;6.00;3.00;1.00
